sensor_id;sensor_type;location;lat;lon;timestamp;P1;durP1;ratioP1;P2;durP2;ratioP2
41623;SDS011;27319;50.306;18.926;2022-07-21T00:02:07;12.15;;;6.95;;
41623;SDS011;27319;50.306;18.926;2022-07-21T00:05:08;16.48;;;7.47;;
41623;SDS011;27319;50.306;18.926;2022-07-21T00:08:09;15.40;;;7.95;;
41623;SDS011;27319;50.306;18.926;2022-07-21T00:11:10;13.07;;;8.15;;
41623;SDS011;27319;50.306;18.926;2022-07-21T00:14:11;16.60;;;8.60;;
41623;SDS011;27319;50.306;18.926;2022-07-21T00:17:27;14.50;;;8.23;;
41623;SDS011;27319;50.306;18.926;2022-07-21T00:21:28;14.40;;;8.00;;
41623;SDS011;27319;50.306;18.926;2022-07-21T00:25:28;17.52;;;8.80;;
41623;SDS011;27319;50.306;18.926;2022-07-21T00:29:29;11.25;;;7.45;;
41623;SDS011;27319;50.306;18.926;2022-07-21T00:33:29;11.68;;;7.50;;
41623;SDS011;27319;50.306;18.926;2022-07-21T00:37:30;11.52;;;7.43;;
41623;SDS011;27319;50.306;18.926;2022-07-21T00:40:31;14.05;;;6.82;;
41623;SDS011;27319;50.306;18.926;2022-07-21T00:43:32;11.80;;;7.28;;
41623;SDS011;27319;50.306;18.926;2022-07-21T00:46:33;18.90;;;7.55;;
41623;SDS011;27319;50.306;18.926;2022-07-21T00:49:34;14.02;;;7.60;;
41623;SDS011;27319;50.306;18.926;2022-07-21T00:52:35;11.95;;;6.70;;
41623;SDS011;27319;50.306;18.926;2022-07-21T00:55:36;14.63;;;7.30;;
41623;SDS011;27319;50.306;18.926;2022-07-21T00:58:37;10.15;;;7.03;;
41623;SDS011;27319;50.306;18.926;2022-07-21T01:01:40;10.50;;;6.72;;
41623;SDS011;27319;50.306;18.926;2022-07-21T01:04:41;9.32;;;5.80;;
41623;SDS011;27319;50.306;18.926;2022-07-21T01:07:42;9.65;;;6.57;;
41623;SDS011;27319;50.306;18.926;2022-07-21T01:10:45;10.98;;;6.95;;
41623;SDS011;27319;50.306;18.926;2022-07-21T01:13:46;11.07;;;6.18;;
41623;SDS011;27319;50.306;18.926;2022-07-21T01:16:48;11.55;;;6.20;;
41623;SDS011;27319;50.306;18.926;2022-07-21T01:19:49;9.15;;;6.28;;
41623;SDS011;27319;50.306;18.926;2022-07-21T01:22:52;8.48;;;6.22;;
41623;SDS011;27319;50.306;18.926;2022-07-21T01:25:56;8.13;;;5.95;;
41623;SDS011;27319;50.306;18.926;2022-07-21T01:28:57;10.80;;;6.68;;
41623;SDS011;27319;50.306;18.926;2022-07-21T01:31:58;13.40;;;6.25;;
41623;SDS011;27319;50.306;18.926;2022-07-21T01:34:59;11.88;;;6.72;;
41623;SDS011;27319;50.306;18.926;2022-07-21T01:38:00;12.70;;;7.03;;
41623;SDS011;27319;50.306;18.926;2022-07-21T01:41:01;13.75;;;7.10;;
41623;SDS011;27319;50.306;18.926;2022-07-21T01:44:20;11.27;;;6.95;;
41623;SDS011;27319;50.306;18.926;2022-07-21T01:47:21;10.55;;;6.93;;
41623;SDS011;27319;50.306;18.926;2022-07-21T01:50:23;14.43;;;6.95;;
41623;SDS011;27319;50.306;18.926;2022-07-21T01:53:27;13.93;;;7.28;;
41623;SDS011;27319;50.306;18.926;2022-07-21T01:56:27;10.30;;;6.82;;
41623;SDS011;27319;50.306;18.926;2022-07-21T01:59:28;11.82;;;6.80;;
41623;SDS011;27319;50.306;18.926;2022-07-21T02:02:29;11.57;;;6.38;;
41623;SDS011;27319;50.306;18.926;2022-07-21T02:05:30;9.82;;;5.97;;
41623;SDS011;27319;50.306;18.926;2022-07-21T02:08:31;11.05;;;6.57;;
41623;SDS011;27319;50.306;18.926;2022-07-21T02:11:32;12.20;;;6.80;;
41623;SDS011;27319;50.306;18.926;2022-07-21T02:14:33;8.07;;;5.95;;
41623;SDS011;27319;50.306;18.926;2022-07-21T02:17:34;12.32;;;6.97;;
41623;SDS011;27319;50.306;18.926;2022-07-21T02:20:35;14.88;;;6.60;;
41623;SDS011;27319;50.306;18.926;2022-07-21T02:23:36;10.23;;;6.45;;
41623;SDS011;27319;50.306;18.926;2022-07-21T02:26:36;11.15;;;5.90;;
41623;SDS011;27319;50.306;18.926;2022-07-21T02:29:37;12.75;;;5.72;;
41623;SDS011;27319;50.306;18.926;2022-07-21T02:32:38;11.48;;;6.32;;
41623;SDS011;27319;50.306;18.926;2022-07-21T02:35:39;10.88;;;6.25;;
41623;SDS011;27319;50.306;18.926;2022-07-21T02:38:40;10.82;;;6.03;;
41623;SDS011;27319;50.306;18.926;2022-07-21T02:41:42;8.80;;;5.95;;
41623;SDS011;27319;50.306;18.926;2022-07-21T02:44:42;14.73;;;6.03;;
41623;SDS011;27319;50.306;18.926;2022-07-21T02:48:17;11.00;;;6.13;;
41623;SDS011;27319;50.306;18.926;2022-07-21T02:51:11;11.18;;;6.45;;
41623;SDS011;27319;50.306;18.926;2022-07-21T02:54:12;10.98;;;7.00;;
41623;SDS011;27319;50.306;18.926;2022-07-21T02:57:13;10.60;;;6.35;;
41623;SDS011;27319;50.306;18.926;2022-07-21T03:00:14;12.40;;;6.63;;
41623;SDS011;27319;50.306;18.926;2022-07-21T03:03:15;13.00;;;6.30;;
41623;SDS011;27319;50.306;18.926;2022-07-21T03:06:17;13.90;;;5.80;;
41623;SDS011;27319;50.306;18.926;2022-07-21T03:09:17;12.20;;;6.70;;
41623;SDS011;27319;50.306;18.926;2022-07-21T03:12:18;10.75;;;6.60;;
41623;SDS011;27319;50.306;18.926;2022-07-21T03:15:19;10.07;;;6.18;;
41623;SDS011;27319;50.306;18.926;2022-07-21T03:18:20;11.80;;;6.43;;
41623;SDS011;27319;50.306;18.926;2022-07-21T03:21:21;14.23;;;6.53;;
41623;SDS011;27319;50.306;18.926;2022-07-21T03:24:22;16.92;;;6.70;;
41623;SDS011;27319;50.306;18.926;2022-07-21T03:27:22;11.27;;;5.78;;
41623;SDS011;27319;50.306;18.926;2022-07-21T03:30:24;11.20;;;5.85;;
41623;SDS011;27319;50.306;18.926;2022-07-21T03:33:25;10.13;;;6.38;;
41623;SDS011;27319;50.306;18.926;2022-07-21T03:36:26;18.45;;;6.70;;
41623;SDS011;27319;50.306;18.926;2022-07-21T03:39:27;9.88;;;6.32;;
41623;SDS011;27319;50.306;18.926;2022-07-21T03:42:28;7.05;;;5.53;;
41623;SDS011;27319;50.306;18.926;2022-07-21T03:45:29;7.95;;;6.22;;
41623;SDS011;27319;50.306;18.926;2022-07-21T03:48:31;15.63;;;6.63;;
41623;SDS011;27319;50.306;18.926;2022-07-21T03:51:32;10.68;;;5.60;;
41623;SDS011;27319;50.306;18.926;2022-07-21T03:54:33;9.52;;;6.07;;
41623;SDS011;27319;50.306;18.926;2022-07-21T03:57:37;8.07;;;5.20;;
41623;SDS011;27319;50.306;18.926;2022-07-21T04:00:41;9.73;;;5.70;;
41623;SDS011;27319;50.306;18.926;2022-07-21T04:03:42;9.63;;;5.63;;
41623;SDS011;27319;50.306;18.926;2022-07-21T04:06:43;9.02;;;6.05;;
41623;SDS011;27319;50.306;18.926;2022-07-21T04:09:44;13.75;;;5.70;;
41623;SDS011;27319;50.306;18.926;2022-07-21T04:12:45;10.80;;;6.45;;
41623;SDS011;27319;50.306;18.926;2022-07-21T04:15:46;8.88;;;6.57;;
41623;SDS011;27319;50.306;18.926;2022-07-21T04:19:47;11.85;;;6.25;;
41623;SDS011;27319;50.306;18.926;2022-07-21T04:23:48;11.63;;;6.63;;
41623;SDS011;27319;50.306;18.926;2022-07-21T04:27:49;14.00;;;7.35;;
41623;SDS011;27319;50.306;18.926;2022-07-21T04:31:49;14.13;;;6.88;;
41623;SDS011;27319;50.306;18.926;2022-07-21T04:35:50;14.52;;;7.13;;
41623;SDS011;27319;50.306;18.926;2022-07-21T04:39:50;17.92;;;6.95;;
41623;SDS011;27319;50.306;18.926;2022-07-21T04:42:51;11.82;;;6.78;;
41623;SDS011;27319;50.306;18.926;2022-07-21T04:45:52;14.85;;;6.30;;
41623;SDS011;27319;50.306;18.926;2022-07-21T04:48:53;12.10;;;5.72;;
41623;SDS011;27319;50.306;18.926;2022-07-21T04:51:53;12.80;;;6.93;;
41623;SDS011;27319;50.306;18.926;2022-07-21T04:54:54;10.07;;;6.25;;
41623;SDS011;27319;50.306;18.926;2022-07-21T04:57:55;16.05;;;6.85;;
41623;SDS011;27319;50.306;18.926;2022-07-21T05:00:58;9.38;;;5.93;;
41623;SDS011;27319;50.306;18.926;2022-07-21T05:03:59;9.48;;;5.65;;
41623;SDS011;27319;50.306;18.926;2022-07-21T05:07:00;10.60;;;5.38;;
41623;SDS011;27319;50.306;18.926;2022-07-21T05:10:03;11.52;;;5.35;;
41623;SDS011;27319;50.306;18.926;2022-07-21T05:13:08;8.07;;;5.25;;
41623;SDS011;27319;50.306;18.926;2022-07-21T05:17:08;11.07;;;5.07;;
41623;SDS011;27319;50.306;18.926;2022-07-21T05:21:09;11.88;;;5.32;;
41623;SDS011;27319;50.306;18.926;2022-07-21T05:25:09;9.07;;;4.90;;
41623;SDS011;27319;50.306;18.926;2022-07-21T05:29:10;8.40;;;4.75;;
41623;SDS011;27319;50.306;18.926;2022-07-21T05:33:10;13.18;;;6.18;;
41623;SDS011;27319;50.306;18.926;2022-07-21T05:37:11;11.38;;;4.75;;
41623;SDS011;27319;50.306;18.926;2022-07-21T05:40:30;13.88;;;5.43;;
41623;SDS011;27319;50.306;18.926;2022-07-21T05:43:31;16.85;;;6.28;;
41623;SDS011;27319;50.306;18.926;2022-07-21T05:46:32;11.38;;;5.72;;
41623;SDS011;27319;50.306;18.926;2022-07-21T05:49:33;12.38;;;5.53;;
41623;SDS011;27319;50.306;18.926;2022-07-21T05:52:33;11.30;;;5.90;;
41623;SDS011;27319;50.306;18.926;2022-07-21T05:55:50;23.90;;;5.78;;
41623;SDS011;27319;50.306;18.926;2022-07-21T05:58:50;15.85;;;6.25;;
41623;SDS011;27319;50.306;18.926;2022-07-21T06:02:51;15.98;;;5.53;;
41623;SDS011;27319;50.306;18.926;2022-07-21T06:06:52;14.48;;;6.18;;
41623;SDS011;27319;50.306;18.926;2022-07-21T06:09:56;10.50;;;5.60;;
41623;SDS011;27319;50.306;18.926;2022-07-21T06:13:57;12.10;;;5.50;;
41623;SDS011;27319;50.306;18.926;2022-07-21T06:17:57;17.30;;;6.00;;
41623;SDS011;27319;50.306;18.926;2022-07-21T06:22:16;15.73;;;6.00;;
41623;SDS011;27319;50.306;18.926;2022-07-21T06:26:17;24.17;;;9.55;;
41623;SDS011;27319;50.306;18.926;2022-07-21T06:30:17;19.17;;;8.13;;
41623;SDS011;27319;50.306;18.926;2022-07-21T06:34:18;16.70;;;7.28;;
41623;SDS011;27319;50.306;18.926;2022-07-21T06:38:18;16.58;;;6.55;;
41623;SDS011;27319;50.306;18.926;2022-07-21T06:41:19;15.63;;;5.50;;
41623;SDS011;27319;50.306;18.926;2022-07-21T06:44:20;14.13;;;5.90;;
41623;SDS011;27319;50.306;18.926;2022-07-21T06:47:20;12.45;;;5.75;;
41623;SDS011;27319;50.306;18.926;2022-07-21T06:50:22;10.23;;;5.28;;
41623;SDS011;27319;50.306;18.926;2022-07-21T06:53:23;11.80;;;5.88;;
41623;SDS011;27319;50.306;18.926;2022-07-21T06:56:25;12.73;;;6.47;;
41623;SDS011;27319;50.306;18.926;2022-07-21T06:59:25;17.83;;;6.88;;
41623;SDS011;27319;50.306;18.926;2022-07-21T07:02:26;14.15;;;6.22;;
41623;SDS011;27319;50.306;18.926;2022-07-21T07:06:27;18.08;;;7.18;;
41623;SDS011;27319;50.306;18.926;2022-07-21T07:10:27;17.77;;;6.22;;
41623;SDS011;27319;50.306;18.926;2022-07-21T07:14:31;12.15;;;5.75;;
41623;SDS011;27319;50.306;18.926;2022-07-21T07:18:31;9.93;;;5.65;;
41623;SDS011;27319;50.306;18.926;2022-07-21T07:21:32;12.38;;;5.47;;
41623;SDS011;27319;50.306;18.926;2022-07-21T07:25:33;11.40;;;5.57;;
41623;SDS011;27319;50.306;18.926;2022-07-21T07:29:33;10.68;;;4.93;;
41623;SDS011;27319;50.306;18.926;2022-07-21T07:33:34;12.73;;;4.85;;
41623;SDS011;27319;50.306;18.926;2022-07-21T07:37:35;13.85;;;4.85;;
41623;SDS011;27319;50.306;18.926;2022-07-21T07:40:37;13.18;;;5.88;;
41623;SDS011;27319;50.306;18.926;2022-07-21T07:43:38;12.35;;;5.57;;
41623;SDS011;27319;50.306;18.926;2022-07-21T07:46:39;16.75;;;6.15;;
41623;SDS011;27319;50.306;18.926;2022-07-21T07:49:40;13.88;;;5.97;;
41623;SDS011;27319;50.306;18.926;2022-07-21T07:52:41;13.73;;;5.03;;
41623;SDS011;27319;50.306;18.926;2022-07-21T07:55:43;22.88;;;5.53;;
41623;SDS011;27319;50.306;18.926;2022-07-21T07:58:44;22.25;;;5.90;;
41623;SDS011;27319;50.306;18.926;2022-07-21T08:01:45;13.10;;;5.90;;
41623;SDS011;27319;50.306;18.926;2022-07-21T08:04:45;20.52;;;6.63;;
41623;SDS011;27319;50.306;18.926;2022-07-21T08:07:46;13.07;;;5.60;;
41623;SDS011;27319;50.306;18.926;2022-07-21T08:10:47;9.65;;;6.10;;
41623;SDS011;27319;50.306;18.926;2022-07-21T08:13:49;16.02;;;5.88;;
41623;SDS011;27319;50.306;18.926;2022-07-21T08:16:49;17.67;;;5.63;;
41623;SDS011;27319;50.306;18.926;2022-07-21T08:19:50;10.90;;;4.90;;
41623;SDS011;27319;50.306;18.926;2022-07-21T08:22:51;19.80;;;5.20;;
41623;SDS011;27319;50.306;18.926;2022-07-21T08:25:52;12.27;;;5.25;;
41623;SDS011;27319;50.306;18.926;2022-07-21T08:28:54;12.02;;;4.80;;
41623;SDS011;27319;50.306;18.926;2022-07-21T08:31:56;14.05;;;5.03;;
41623;SDS011;27319;50.306;18.926;2022-07-21T08:34:57;11.45;;;5.40;;
41623;SDS011;27319;50.306;18.926;2022-07-21T08:37:59;16.23;;;5.45;;
41623;SDS011;27319;50.306;18.926;2022-07-21T08:41:05;10.13;;;4.50;;
41623;SDS011;27319;50.306;18.926;2022-07-21T08:44:09;14.85;;;7.10;;
41623;SDS011;27319;50.306;18.926;2022-07-21T08:47:11;18.75;;;8.68;;
41623;SDS011;27319;50.306;18.926;2022-07-21T08:50:12;22.20;;;8.27;;
41623;SDS011;27319;50.306;18.926;2022-07-21T08:53:12;14.82;;;6.63;;
41623;SDS011;27319;50.306;18.926;2022-07-21T08:56:14;12.10;;;5.13;;
41623;SDS011;27319;50.306;18.926;2022-07-21T08:59:15;12.18;;;4.68;;
41623;SDS011;27319;50.306;18.926;2022-07-21T09:02:29;15.80;;;5.28;;
41623;SDS011;27319;50.306;18.926;2022-07-21T09:05:32;13.75;;;3.92;;
41623;SDS011;27319;50.306;18.926;2022-07-21T09:10:21;6.43;;;3.92;;
41623;SDS011;27319;50.306;18.926;2022-07-21T09:17:44;8.93;;;4.28;;
41623;SDS011;27319;50.306;18.926;2022-07-21T09:21:52;10.18;;;3.97;;
41623;SDS011;27319;50.306;18.926;2022-07-21T09:25:53;14.00;;;4.45;;
41623;SDS011;27319;50.306;18.926;2022-07-21T09:29:59;11.80;;;5.35;;
41623;SDS011;27319;50.306;18.926;2022-07-21T09:33:58;12.93;;;5.27;;
41623;SDS011;27319;50.306;18.926;2022-07-21T09:38:10;15.32;;;7.57;;
41623;SDS011;27319;50.306;18.926;2022-07-21T09:41:15;11.27;;;4.97;;
41623;SDS011;27319;50.306;18.926;2022-07-21T09:44:25;11.93;;;6.72;;
41623;SDS011;27319;50.306;18.926;2022-07-21T09:47:31;18.27;;;5.18;;
41623;SDS011;27319;50.306;18.926;2022-07-21T09:50:33;7.70;;;4.60;;
41623;SDS011;27319;50.306;18.926;2022-07-21T09:53:50;11.02;;;4.45;;
41623;SDS011;27319;50.306;18.926;2022-07-21T09:56:53;15.02;;;4.88;;
41623;SDS011;27319;50.306;18.926;2022-07-21T09:59:55;11.65;;;4.70;;
41623;SDS011;27319;50.306;18.926;2022-07-21T10:02:57;6.03;;;4.00;;
41623;SDS011;27319;50.306;18.926;2022-07-21T10:05:58;9.88;;;4.95;;
41623;SDS011;27319;50.306;18.926;2022-07-21T10:09:00;16.77;;;4.32;;
41623;SDS011;27319;50.306;18.926;2022-07-21T10:12:03;11.85;;;4.40;;
41623;SDS011;27319;50.306;18.926;2022-07-21T10:15:04;14.52;;;5.13;;
41623;SDS011;27319;50.306;18.926;2022-07-21T10:18:06;14.73;;;4.55;;
41623;SDS011;27319;50.306;18.926;2022-07-21T10:24:27;10.75;;;6.00;;
41623;SDS011;27319;50.306;18.926;2022-07-21T10:27:29;20.27;;;8.45;;
41623;SDS011;27319;50.306;18.926;2022-07-21T10:30:40;12.55;;;6.45;;
41623;SDS011;27319;50.306;18.926;2022-07-21T10:36:46;8.35;;;4.85;;
41623;SDS011;27319;50.306;18.926;2022-07-21T10:39:50;6.80;;;4.50;;
41623;SDS011;27319;50.306;18.926;2022-07-21T10:46:01;15.00;;;4.53;;
41623;SDS011;27319;50.306;18.926;2022-07-21T10:49:02;8.35;;;4.22;;
41623;SDS011;27319;50.306;18.926;2022-07-21T10:52:02;7.30;;;4.68;;
41623;SDS011;27319;50.306;18.926;2022-07-21T10:58:26;9.80;;;4.22;;
41623;SDS011;27319;50.306;18.926;2022-07-21T11:01:30;9.95;;;4.47;;
41623;SDS011;27319;50.306;18.926;2022-07-21T11:04:31;8.85;;;4.53;;
41623;SDS011;27319;50.306;18.926;2022-07-21T11:11:25;11.27;;;7.28;;
41623;SDS011;27319;50.306;18.926;2022-07-21T11:14:42;10.65;;;4.15;;
41623;SDS011;27319;50.306;18.926;2022-07-21T11:17:45;6.72;;;4.32;;
41623;SDS011;27319;50.306;18.926;2022-07-21T11:24:17;9.40;;;3.63;;
41623;SDS011;27319;50.306;18.926;2022-07-21T11:27:23;8.52;;;4.03;;
41623;SDS011;27319;50.306;18.926;2022-07-21T11:31:25;6.57;;;4.40;;
41623;SDS011;27319;50.306;18.926;2022-07-21T11:35:26;10.77;;;3.67;;
41623;SDS011;27319;50.306;18.926;2022-07-21T11:38:27;8.55;;;3.92;;
41623;SDS011;27319;50.306;18.926;2022-07-21T11:41:27;11.50;;;6.20;;
41623;SDS011;27319;50.306;18.926;2022-07-21T11:44:28;14.65;;;4.55;;
41623;SDS011;27319;50.306;18.926;2022-07-21T11:47:29;7.18;;;3.70;;
41623;SDS011;27319;50.306;18.926;2022-07-21T11:50:30;9.27;;;4.10;;
41623;SDS011;27319;50.306;18.926;2022-07-21T11:53:31;15.95;;;4.40;;
41623;SDS011;27319;50.306;18.926;2022-07-21T11:56:36;11.50;;;4.05;;
41623;SDS011;27319;50.306;18.926;2022-07-21T11:59:39;11.30;;;4.15;;
41623;SDS011;27319;50.306;18.926;2022-07-21T12:02:43;11.10;;;3.92;;
41623;SDS011;27319;50.306;18.926;2022-07-21T12:05:46;10.00;;;3.25;;
41623;SDS011;27319;50.306;18.926;2022-07-21T12:08:52;15.07;;;3.97;;
41623;SDS011;27319;50.306;18.926;2022-07-21T12:11:53;8.98;;;3.92;;
41623;SDS011;27319;50.306;18.926;2022-07-21T12:14:54;7.07;;;3.55;;
41623;SDS011;27319;50.306;18.926;2022-07-21T12:17:56;7.03;;;3.45;;
41623;SDS011;27319;50.306;18.926;2022-07-21T12:21:02;7.07;;;3.80;;
41623;SDS011;27319;50.306;18.926;2022-07-21T12:24:06;6.10;;;3.60;;
41623;SDS011;27319;50.306;18.926;2022-07-21T12:27:11;15.93;;;3.58;;
41623;SDS011;27319;50.306;18.926;2022-07-21T12:30:55;5.78;;;3.17;;
41623;SDS011;27319;50.306;18.926;2022-07-21T12:33:42;10.57;;;3.85;;
41623;SDS011;27319;50.306;18.926;2022-07-21T12:36:43;8.75;;;3.13;;
41623;SDS011;27319;50.306;18.926;2022-07-21T12:39:59;4.95;;;2.90;;
41623;SDS011;27319;50.306;18.926;2022-07-21T12:43:05;7.55;;;3.55;;
41623;SDS011;27319;50.306;18.926;2022-07-21T12:49:12;15.95;;;4.18;;
41623;SDS011;27319;50.306;18.926;2022-07-21T12:52:13;11.25;;;4.13;;
41623;SDS011;27319;50.306;18.926;2022-07-21T12:55:14;9.40;;;3.55;;
41623;SDS011;27319;50.306;18.926;2022-07-21T12:58:15;9.35;;;3.83;;
41623;SDS011;27319;50.306;18.926;2022-07-21T13:01:16;13.32;;;3.55;;
41623;SDS011;27319;50.306;18.926;2022-07-21T13:04:18;9.15;;;4.03;;
41623;SDS011;27319;50.306;18.926;2022-07-21T13:08:19;9.88;;;3.90;;
41623;SDS011;27319;50.306;18.926;2022-07-21T13:12:19;9.32;;;3.67;;
41623;SDS011;27319;50.306;18.926;2022-07-21T13:16:20;10.95;;;3.88;;
41623;SDS011;27319;50.306;18.926;2022-07-21T13:20:21;9.65;;;3.40;;
41623;SDS011;27319;50.306;18.926;2022-07-21T13:23:56;8.15;;;3.47;;
41623;SDS011;27319;50.306;18.926;2022-07-21T13:27:51;7.57;;;3.35;;
41623;SDS011;27319;50.306;18.926;2022-07-21T13:31:52;9.00;;;3.92;;
41623;SDS011;27319;50.306;18.926;2022-07-21T13:35:53;8.68;;;3.35;;
41623;SDS011;27319;50.306;18.926;2022-07-21T13:38:54;13.23;;;3.83;;
41623;SDS011;27319;50.306;18.926;2022-07-21T13:41:56;8.90;;;3.17;;
41623;SDS011;27319;50.306;18.926;2022-07-21T13:44:57;13.02;;;4.18;;
41623;SDS011;27319;50.306;18.926;2022-07-21T13:48:15;12.20;;;3.97;;
41623;SDS011;27319;50.306;18.926;2022-07-21T13:52:16;9.73;;;3.50;;
41623;SDS011;27319;50.306;18.926;2022-07-21T13:56:17;8.88;;;3.38;;
41623;SDS011;27319;50.306;18.926;2022-07-21T14:00:17;12.73;;;4.03;;
41623;SDS011;27319;50.306;18.926;2022-07-21T14:04:18;13.73;;;3.45;;
41623;SDS011;27319;50.306;18.926;2022-07-21T14:08:19;11.95;;;3.45;;
41623;SDS011;27319;50.306;18.926;2022-07-21T14:12:19;15.23;;;3.95;;
41623;SDS011;27319;50.306;18.926;2022-07-21T14:16:20;13.93;;;4.20;;
41623;SDS011;27319;50.306;18.926;2022-07-21T14:20:20;12.07;;;3.55;;
41623;SDS011;27319;50.306;18.926;2022-07-21T14:23:21;14.10;;;4.10;;
41623;SDS011;27319;50.306;18.926;2022-07-21T14:26:23;7.95;;;3.50;;
41623;SDS011;27319;50.306;18.926;2022-07-21T14:29:24;18.77;;;4.25;;
41623;SDS011;27319;50.306;18.926;2022-07-21T14:32:25;12.23;;;3.53;;
41623;SDS011;27319;50.306;18.926;2022-07-21T14:35:26;12.40;;;2.80;;
41623;SDS011;27319;50.306;18.926;2022-07-21T14:38:27;10.02;;;3.75;;
41623;SDS011;27319;50.306;18.926;2022-07-21T14:41:29;13.50;;;3.92;;
41623;SDS011;27319;50.306;18.926;2022-07-21T14:44:30;11.38;;;3.33;;
41623;SDS011;27319;50.306;18.926;2022-07-21T14:47:31;9.15;;;3.50;;
41623;SDS011;27319;50.306;18.926;2022-07-21T14:51:31;14.27;;;3.53;;
41623;SDS011;27319;50.306;18.926;2022-07-21T14:55:32;10.48;;;3.72;;
41623;SDS011;27319;50.306;18.926;2022-07-21T14:58:37;10.13;;;3.83;;
41623;SDS011;27319;50.306;18.926;2022-07-21T15:02:38;9.05;;;4.13;;
41623;SDS011;27319;50.306;18.926;2022-07-21T15:06:38;11.07;;;5.00;;
41623;SDS011;27319;50.306;18.926;2022-07-21T15:10:39;8.77;;;4.22;;
41623;SDS011;27319;50.306;18.926;2022-07-21T15:14:39;12.23;;;3.67;;
41623;SDS011;27319;50.306;18.926;2022-07-21T15:18:43;9.98;;;3.58;;
41623;SDS011;27319;50.306;18.926;2022-07-21T15:22:44;8.70;;;3.30;;
41623;SDS011;27319;50.306;18.926;2022-07-21T15:26:44;18.33;;;3.90;;
41623;SDS011;27319;50.306;18.926;2022-07-21T15:30:45;9.73;;;3.72;;
41623;SDS011;27319;50.306;18.926;2022-07-21T15:34:00;9.80;;;3.80;;
41623;SDS011;27319;50.306;18.926;2022-07-21T15:38:01;12.88;;;4.10;;
41623;SDS011;27319;50.306;18.926;2022-07-21T15:41:02;9.02;;;3.60;;
41623;SDS011;27319;50.306;18.926;2022-07-21T15:44:03;9.27;;;3.33;;
41623;SDS011;27319;50.306;18.926;2022-07-21T15:47:06;13.80;;;3.65;;
41623;SDS011;27319;50.306;18.926;2022-07-21T15:50:08;9.95;;;4.00;;
41623;SDS011;27319;50.306;18.926;2022-07-21T15:53:11;8.73;;;3.72;;
41623;SDS011;27319;50.306;18.926;2022-07-21T15:56:13;14.43;;;3.83;;
41623;SDS011;27319;50.306;18.926;2022-07-21T15:59:14;8.73;;;3.10;;
41623;SDS011;27319;50.306;18.926;2022-07-21T16:02:37;12.27;;;3.40;;
41623;SDS011;27319;50.306;18.926;2022-07-21T16:06:37;10.05;;;3.60;;
41623;SDS011;27319;50.306;18.926;2022-07-21T16:09:38;10.30;;;3.55;;
41623;SDS011;27319;50.306;18.926;2022-07-21T16:13:39;7.95;;;3.80;;
41623;SDS011;27319;50.306;18.926;2022-07-21T16:16:42;12.27;;;3.80;;
41623;SDS011;27319;50.306;18.926;2022-07-21T16:19:46;12.02;;;3.65;;
41623;SDS011;27319;50.306;18.926;2022-07-21T16:22:46;14.00;;;4.20;;
41623;SDS011;27319;50.306;18.926;2022-07-21T16:25:50;13.65;;;5.15;;
41623;SDS011;27319;50.306;18.926;2022-07-21T16:28:52;12.50;;;4.18;;
41623;SDS011;27319;50.306;18.926;2022-07-21T16:31:53;13.25;;;4.90;;
41623;SDS011;27319;50.306;18.926;2022-07-21T16:34:59;11.00;;;5.10;;
41623;SDS011;27319;50.306;18.926;2022-07-21T16:38:00;26.25;;;6.35;;
41623;SDS011;27319;50.306;18.926;2022-07-21T16:41:03;17.70;;;6.25;;
41623;SDS011;27319;50.306;18.926;2022-07-21T16:44:04;10.93;;;5.88;;
41623;SDS011;27319;50.306;18.926;2022-07-21T16:47:08;15.68;;;5.35;;
41623;SDS011;27319;50.306;18.926;2022-07-21T16:50:10;13.77;;;5.25;;
41623;SDS011;27319;50.306;18.926;2022-07-21T16:53:11;14.10;;;4.82;;
41623;SDS011;27319;50.306;18.926;2022-07-21T16:56:12;10.25;;;4.80;;
41623;SDS011;27319;50.306;18.926;2022-07-21T16:59:13;13.63;;;5.07;;
41623;SDS011;27319;50.306;18.926;2022-07-21T17:02:16;14.32;;;4.80;;
41623;SDS011;27319;50.306;18.926;2022-07-21T17:05:20;14.82;;;4.60;;
41623;SDS011;27319;50.306;18.926;2022-07-21T17:08:35;13.73;;;4.55;;
41623;SDS011;27319;50.306;18.926;2022-07-21T17:11:36;8.57;;;4.10;;
41623;SDS011;27319;50.306;18.926;2022-07-21T17:14:37;15.00;;;4.57;;
41623;SDS011;27319;50.306;18.926;2022-07-21T17:17:42;8.38;;;4.35;;
41623;SDS011;27319;50.306;18.926;2022-07-21T17:20:44;12.95;;;4.50;;
41623;SDS011;27319;50.306;18.926;2022-07-21T17:23:45;11.70;;;4.43;;
41623;SDS011;27319;50.306;18.926;2022-07-21T17:27:46;11.60;;;4.70;;
41623;SDS011;27319;50.306;18.926;2022-07-21T17:31:49;11.25;;;5.05;;
41623;SDS011;27319;50.306;18.926;2022-07-21T17:35:50;13.98;;;4.35;;
41623;SDS011;27319;50.306;18.926;2022-07-21T17:39:50;9.68;;;4.50;;
41623;SDS011;27319;50.306;18.926;2022-07-21T17:42:51;11.38;;;4.63;;
41623;SDS011;27319;50.306;18.926;2022-07-21T17:45:52;13.95;;;4.57;;
41623;SDS011;27319;50.306;18.926;2022-07-21T17:48:54;9.00;;;3.92;;
41623;SDS011;27319;50.306;18.926;2022-07-21T17:51:54;10.68;;;4.63;;
41623;SDS011;27319;50.306;18.926;2022-07-21T17:54:55;14.02;;;4.00;;
41623;SDS011;27319;50.306;18.926;2022-07-21T17:57:58;12.00;;;3.78;;
41623;SDS011;27319;50.306;18.926;2022-07-21T18:01:20;11.15;;;4.60;;
41623;SDS011;27319;50.306;18.926;2022-07-21T18:04:21;13.93;;;3.83;;
41623;SDS011;27319;50.306;18.926;2022-07-21T18:07:22;17.13;;;5.50;;
41623;SDS011;27319;50.306;18.926;2022-07-21T18:10:26;13.80;;;4.35;;
41623;SDS011;27319;50.306;18.926;2022-07-21T18:13:30;8.85;;;4.35;;
41623;SDS011;27319;50.306;18.926;2022-07-21T18:16:31;7.95;;;3.70;;
41623;SDS011;27319;50.306;18.926;2022-07-21T18:19:32;7.40;;;3.95;;
41623;SDS011;27319;50.306;18.926;2022-07-21T18:22:33;10.60;;;4.22;;
41623;SDS011;27319;50.306;18.926;2022-07-21T18:25:34;11.38;;;4.03;;
41623;SDS011;27319;50.306;18.926;2022-07-21T18:28:38;11.55;;;6.40;;
41623;SDS011;27319;50.306;18.926;2022-07-21T18:31:42;21.70;;;11.43;;
41623;SDS011;27319;50.306;18.926;2022-07-21T18:34:46;17.48;;;11.45;;
41623;SDS011;27319;50.306;18.926;2022-07-21T18:37:47;17.77;;;10.32;;
41623;SDS011;27319;50.306;18.926;2022-07-21T18:40:48;15.82;;;8.38;;
41623;SDS011;27319;50.306;18.926;2022-07-21T18:43:49;10.05;;;6.85;;
41623;SDS011;27319;50.306;18.926;2022-07-21T18:46:50;18.25;;;5.97;;
41623;SDS011;27319;50.306;18.926;2022-07-21T18:49:51;10.65;;;5.30;;
41623;SDS011;27319;50.306;18.926;2022-07-21T18:53:00;16.15;;;5.18;;
41623;SDS011;27319;50.306;18.926;2022-07-21T18:56:10;12.70;;;5.25;;
41623;SDS011;27319;50.306;18.926;2022-07-21T18:59:15;8.50;;;5.07;;
41623;SDS011;27319;50.306;18.926;2022-07-21T19:02:18;9.38;;;5.43;;
41623;SDS011;27319;50.306;18.926;2022-07-21T19:05:32;8.23;;;4.65;;
41623;SDS011;27319;50.306;18.926;2022-07-21T19:09:34;7.07;;;4.60;;
41623;SDS011;27319;50.306;18.926;2022-07-21T19:13:42;11.77;;;4.07;;
41623;SDS011;27319;50.306;18.926;2022-07-21T19:17:24;14.75;;;4.40;;
41623;SDS011;27319;50.306;18.926;2022-07-21T19:20:25;9.00;;;3.50;;
41623;SDS011;27319;50.306;18.926;2022-07-21T19:23:28;12.40;;;4.22;;
41623;SDS011;27319;50.306;18.926;2022-07-21T19:26:30;8.20;;;4.05;;
41623;SDS011;27319;50.306;18.926;2022-07-21T19:29:34;9.77;;;4.50;;
41623;SDS011;27319;50.306;18.926;2022-07-21T19:32:36;9.10;;;3.97;;
41623;SDS011;27319;50.306;18.926;2022-07-21T19:35:38;11.45;;;4.32;;
41623;SDS011;27319;50.306;18.926;2022-07-21T19:38:39;9.77;;;4.05;;